sensor_id;sensor_type;location;lat;lon;timestamp;temperature;humidity
20740;DHT22;10530;49.968;19.844;2023-05-10T00:04:02;4.60;99.90
20740;DHT22;10530;49.968;19.844;2023-05-10T00:09:05;4.30;99.90
20740;DHT22;10530;49.968;19.844;2023-05-10T00:14:07;4.30;99.90
20740;DHT22;10530;49.968;19.844;2023-05-10T00:19:10;4.10;99.90
20740;DHT22;10530;49.968;19.844;2023-05-10T00:24:13;3.90;99.90
20740;DHT22;10530;49.968;19.844;2023-05-10T00:29:16;3.70;99.90
20740;DHT22;10530;49.968;19.844;2023-05-10T00:34:18;3.80;99.90
20740;DHT22;10530;49.968;19.844;2023-05-10T00:39:21;3.60;99.90
20740;DHT22;10530;49.968;19.844;2023-05-10T00:44:24;3.70;99.90
20740;DHT22;10530;49.968;19.844;2023-05-10T00:49:27;3.40;99.90
20740;DHT22;10530;49.968;19.844;2023-05-10T00:54:30;3.40;99.90
20740;DHT22;10530;49.968;19.844;2023-05-10T00:59:33;3.30;99.90
20740;DHT22;10530;49.968;19.844;2023-05-10T01:04:36;3.20;99.90
20740;DHT22;10530;49.968;19.844;2023-05-10T01:09:40;3.20;99.90
20740;DHT22;10530;49.968;19.844;2023-05-10T01:14:43;3.10;99.90
20740;DHT22;10530;49.968;19.844;2023-05-10T01:19:46;3.00;99.90
20740;DHT22;10530;49.968;19.844;2023-05-10T01:36:03;2.80;99.90
20740;DHT22;10530;49.968;19.844;2023-05-10T01:41:20;2.80;99.90
20740;DHT22;10530;49.968;19.844;2023-05-10T01:46:35;2.70;99.90
20740;DHT22;10530;49.968;19.844;2023-05-10T01:51:48;2.60;99.90
20740;DHT22;10530;49.968;19.844;2023-05-10T01:57:02;2.60;99.90
20740;DHT22;10530;49.968;19.844;2023-05-10T02:02:07;2.40;99.90
20740;DHT22;10530;49.968;19.844;2023-05-10T02:07:10;2.30;99.90
20740;DHT22;10530;49.968;19.844;2023-05-10T02:12:15;2.10;99.90
20740;DHT22;10530;49.968;19.844;2023-05-10T02:17:18;2.10;99.90
20740;DHT22;10530;49.968;19.844;2023-05-10T02:22:24;2.20;99.90
20740;DHT22;10530;49.968;19.844;2023-05-10T02:27:29;2.20;99.90
20740;DHT22;10530;49.968;19.844;2023-05-10T02:32:33;2.10;99.90
20740;DHT22;10530;49.968;19.844;2023-05-10T02:37:39;2.00;99.90
20740;DHT22;10530;49.968;19.844;2023-05-10T02:42:44;1.90;99.90
20740;DHT22;10530;49.968;19.844;2023-05-10T02:47:48;1.70;99.90
20740;DHT22;10530;49.968;19.844;2023-05-10T02:52:54;1.80;99.90
20740;DHT22;10530;49.968;19.844;2023-05-10T02:58:00;1.80;99.90
20740;DHT22;10530;49.968;19.844;2023-05-10T03:03:03;1.80;99.90
20740;DHT22;10530;49.968;19.844;2023-05-10T03:08:06;1.80;99.90
20740;DHT22;10530;49.968;19.844;2023-05-10T03:18:22;1.90;99.90
20740;DHT22;10530;49.968;19.844;2023-05-10T03:23:44;1.90;99.90
20740;DHT22;10530;49.968;19.844;2023-05-10T03:28:48;1.80;99.90
20740;DHT22;10530;49.968;19.844;2023-05-10T03:33:52;1.80;99.90
20740;DHT22;10530;49.968;19.844;2023-05-10T03:39:01;1.80;99.90
20740;DHT22;10530;49.968;19.844;2023-05-10T03:44:05;1.80;99.90
20740;DHT22;10530;49.968;19.844;2023-05-10T03:49:08;1.80;99.90
20740;DHT22;10530;49.968;19.844;2023-05-10T03:54:11;1.90;99.90
20740;DHT22;10530;49.968;19.844;2023-05-10T03:59:14;2.00;99.90
20740;DHT22;10530;49.968;19.844;2023-05-10T04:04:17;2.10;99.90
20740;DHT22;10530;49.968;19.844;2023-05-10T04:09:23;2.10;99.90
20740;DHT22;10530;49.968;19.844;2023-05-10T04:14:26;2.40;99.90
20740;DHT22;10530;49.968;19.844;2023-05-10T04:19:30;2.50;99.90
20740;DHT22;10530;49.968;19.844;2023-05-10T04:24:32;2.70;99.90
20740;DHT22;10530;49.968;19.844;2023-05-10T04:29:35;2.90;99.90
20740;DHT22;10530;49.968;19.844;2023-05-10T04:34:38;3.20;99.90
20740;DHT22;10530;49.968;19.844;2023-05-10T04:39:41;3.50;99.90
20740;DHT22;10530;49.968;19.844;2023-05-10T04:44:43;3.90;99.90
20740;DHT22;10530;49.968;19.844;2023-05-10T04:49:46;4.10;99.90
20740;DHT22;10530;49.968;19.844;2023-05-10T04:54:49;4.40;99.90
20740;DHT22;10530;49.968;19.844;2023-05-10T04:59:51;4.80;99.90
20740;DHT22;10530;49.968;19.844;2023-05-10T05:04:56;5.40;99.90
20740;DHT22;10530;49.968;19.844;2023-05-10T05:10:00;6.10;99.90
20740;DHT22;10530;49.968;19.844;2023-05-10T05:15:03;6.80;99.90
20740;DHT22;10530;49.968;19.844;2023-05-10T05:20:08;7.50;99.90
20740;DHT22;10530;49.968;19.844;2023-05-10T05:25:11;8.00;99.90
20740;DHT22;10530;49.968;19.844;2023-05-10T05:30:14;8.40;99.90
20740;DHT22;10530;49.968;19.844;2023-05-10T05:35:17;8.70;99.90
20740;DHT22;10530;49.968;19.844;2023-05-10T05:40:20;9.10;99.90
20740;DHT22;10530;49.968;19.844;2023-05-10T05:45:23;9.40;99.90
20740;DHT22;10530;49.968;19.844;2023-05-10T05:50:26;9.70;99.90
20740;DHT22;10530;49.968;19.844;2023-05-10T05:55:29;10.30;99.90
20740;DHT22;10530;49.968;19.844;2023-05-10T06:00:34;10.60;99.90
20740;DHT22;10530;49.968;19.844;2023-05-10T06:05:36;10.80;99.90
20740;DHT22;10530;49.968;19.844;2023-05-10T06:10:39;11.20;99.90
20740;DHT22;10530;49.968;19.844;2023-05-10T06:15:42;11.60;99.90
20740;DHT22;10530;49.968;19.844;2023-05-10T06:20:44;11.90;99.90
20740;DHT22;10530;49.968;19.844;2023-05-10T06:25:47;12.50;99.90
20740;DHT22;10530;49.968;19.844;2023-05-10T06:30:50;12.90;99.90
20740;DHT22;10530;49.968;19.844;2023-05-10T06:35:53;13.20;99.90
20740;DHT22;10530;49.968;19.844;2023-05-10T06:40:55;13.40;99.90
20740;DHT22;10530;49.968;19.844;2023-05-10T06:45:58;13.70;97.90
20740;DHT22;10530;49.968;19.844;2023-05-10T06:51:01;14.40;97.60
20740;DHT22;10530;49.968;19.844;2023-05-10T06:56:04;14.40;92.50
20740;DHT22;10530;49.968;19.844;2023-05-10T07:01:07;15.00;91.20
20740;DHT22;10530;49.968;19.844;2023-05-10T07:06:11;15.40;84.10
20740;DHT22;10530;49.968;19.844;2023-05-10T07:11:26;15.60;77.10
20740;DHT22;10530;49.968;19.844;2023-05-10T07:16:29;15.40;72.10
20740;DHT22;10530;49.968;19.844;2023-05-10T07:21:32;15.90;81.70
20740;DHT22;10530;49.968;19.844;2023-05-10T07:26:35;15.80;70.90
20740;DHT22;10530;49.968;19.844;2023-05-10T07:31:38;15.90;71.20
20740;DHT22;10530;49.968;19.844;2023-05-10T07:36:40;16.00;65.40
20740;DHT22;10530;49.968;19.844;2023-05-10T07:41:43;15.70;61.30
20740;DHT22;10530;49.968;19.844;2023-05-10T07:46:47;15.90;63.40
20740;DHT22;10530;49.968;19.844;2023-05-10T07:51:50;16.30;70.20
20740;DHT22;10530;49.968;19.844;2023-05-10T07:56:53;15.90;64.70
20740;DHT22;10530;49.968;19.844;2023-05-10T08:01:56;16.90;68.50
20740;DHT22;10530;49.968;19.844;2023-05-10T08:06:59;17.10;55.40
20740;DHT22;10530;49.968;19.844;2023-05-10T08:12:01;17.50;56.40
20740;DHT22;10530;49.968;19.844;2023-05-10T08:17:04;17.80;55.30
20740;DHT22;10530;49.968;19.844;2023-05-10T08:22:07;18.10;50.60
20740;DHT22;10530;49.968;19.844;2023-05-10T08:27:11;18.80;39.40
20740;DHT22;10530;49.968;19.844;2023-05-10T08:32:13;19.10;38.30
20740;DHT22;10530;49.968;19.844;2023-05-10T08:37:16;19.00;33.80
20740;DHT22;10530;49.968;19.844;2023-05-10T08:42:22;19.10;28.40
20740;DHT22;10530;49.968;19.844;2023-05-10T08:47:28;19.30;23.60
20740;DHT22;10530;49.968;19.844;2023-05-10T08:52:33;19.00;18.90
20740;DHT22;10530;49.968;19.844;2023-05-10T08:57:39;19.80;15.30
20740;DHT22;10530;49.968;19.844;2023-05-10T09:02:43;20.30;12.70
20740;DHT22;10530;49.968;19.844;2023-05-10T09:07:46;20.00;14.70
20740;DHT22;10530;49.968;19.844;2023-05-10T09:12:50;20.80;15.80
20740;DHT22;10530;49.968;19.844;2023-05-10T09:17:54;20.90;13.00
20740;DHT22;10530;49.968;19.844;2023-05-10T09:22:57;21.50;13.60
20740;DHT22;10530;49.968;19.844;2023-05-10T09:28:00;21.80;11.20
20740;DHT22;10530;49.968;19.844;2023-05-10T09:33:03;21.40;10.10
20740;DHT22;10530;49.968;19.844;2023-05-10T09:38:06;21.50;8.60
20740;DHT22;10530;49.968;19.844;2023-05-10T09:43:10;22.30;7.20
20740;DHT22;10530;49.968;19.844;2023-05-10T09:48:13;22.30;7.10
20740;DHT22;10530;49.968;19.844;2023-05-10T09:53:16;21.80;8.60
20740;DHT22;10530;49.968;19.844;2023-05-10T09:58:19;21.30;10.60
20740;DHT22;10530;49.968;19.844;2023-05-10T10:03:22;22.70;8.40
20740;DHT22;10530;49.968;19.844;2023-05-10T10:08:25;21.10;7.60
20740;DHT22;10530;49.968;19.844;2023-05-10T10:13:29;22.70;12.00
20740;DHT22;10530;49.968;19.844;2023-05-10T10:18:32;22.60;6.80
20740;DHT22;10530;49.968;19.844;2023-05-10T10:23:35;21.80;6.30
20740;DHT22;10530;49.968;19.844;2023-05-10T10:29:15;20.80;7.20
20740;DHT22;10530;49.968;19.844;2023-05-10T10:34:28;20.40;8.10
20740;DHT22;10530;49.968;19.844;2023-05-10T10:39:31;20.30;9.90
20740;DHT22;10530;49.968;19.844;2023-05-10T10:44:37;21.90;10.40
20740;DHT22;10530;49.968;19.844;2023-05-10T10:54:51;21.60;6.80
20740;DHT22;10530;49.968;19.844;2023-05-10T11:00:22;21.30;6.20
20740;DHT22;10530;49.968;19.844;2023-05-10T11:10:31;23.30;5.70
20740;DHT22;10530;49.968;19.844;2023-05-10T11:15:37;24.10;7.90
20740;DHT22;10530;49.968;19.844;2023-05-10T11:20:40;22.60;5.60
20740;DHT22;10530;49.968;19.844;2023-05-10T11:25:48;23.70;3.20
20740;DHT22;10530;49.968;19.844;2023-05-10T11:30:52;21.70;5.40
20740;DHT22;10530;49.968;19.844;2023-05-10T11:35:55;22.80;4.30
20740;DHT22;10530;49.968;19.844;2023-05-10T11:40:59;21.80;5.80
20740;DHT22;10530;49.968;19.844;2023-05-10T11:46:02;22.40;5.40
20740;DHT22;10530;49.968;19.844;2023-05-10T11:51:06;23.00;5.10
20740;DHT22;10530;49.968;19.844;2023-05-10T11:56:10;22.90;6.30
20740;DHT22;10530;49.968;19.844;2023-05-10T12:01:13;23.70;6.70
20740;DHT22;10530;49.968;19.844;2023-05-10T12:06:18;23.00;4.60
20740;DHT22;10530;49.968;19.844;2023-05-10T12:11:25;23.90;7.70
20740;DHT22;10530;49.968;19.844;2023-05-10T12:16:31;23.90;5.00
20740;DHT22;10530;49.968;19.844;2023-05-10T12:21:34;22.80;5.30
20740;DHT22;10530;49.968;19.844;2023-05-10T12:26:37;23.30;4.70
20740;DHT22;10530;49.968;19.844;2023-05-10T12:31:58;21.80;4.00
20740;DHT22;10530;49.968;19.844;2023-05-10T12:37:02;22.60;4.30
20740;DHT22;10530;49.968;19.844;2023-05-10T12:42:05;23.90;4.90
20740;DHT22;10530;49.968;19.844;2023-05-10T12:47:08;23.30;3.70
20740;DHT22;10530;49.968;19.844;2023-05-10T12:52:11;23.60;4.30
20740;DHT22;10530;49.968;19.844;2023-05-10T12:57:14;22.90;2.60
20740;DHT22;10530;49.968;19.844;2023-05-10T13:02:18;23.10;5.20
20740;DHT22;10530;49.968;19.844;2023-05-10T13:07:20;23.70;3.60
20740;DHT22;10530;49.968;19.844;2023-05-10T13:12:23;23.30;3.50
20740;DHT22;10530;49.968;19.844;2023-05-10T13:17:26;22.70;5.40
20740;DHT22;10530;49.968;19.844;2023-05-10T13:22:29;23.70;5.70
20740;DHT22;10530;49.968;19.844;2023-05-10T13:27:41;23.10;4.50
20740;DHT22;10530;49.968;19.844;2023-05-10T13:32:44;22.60;4.30
20740;DHT22;10530;49.968;19.844;2023-05-10T13:37:48;22.70;5.80
20740;DHT22;10530;49.968;19.844;2023-05-10T13:42:52;22.40;3.70
20740;DHT22;10530;49.968;19.844;2023-05-10T13:47:55;22.40;5.00
20740;DHT22;10530;49.968;19.844;2023-05-10T13:52:58;23.40;4.20
20740;DHT22;10530;49.968;19.844;2023-05-10T13:58:00;23.00;6.20
20740;DHT22;10530;49.968;19.844;2023-05-10T14:03:03;23.40;4.60
20740;DHT22;10530;49.968;19.844;2023-05-10T14:08:07;22.30;5.20
20740;DHT22;10530;49.968;19.844;2023-05-10T14:13:11;21.60;6.80
20740;DHT22;10530;49.968;19.844;2023-05-10T14:18:14;22.60;7.70
20740;DHT22;10530;49.968;19.844;2023-05-10T14:23:17;22.50;7.10
20740;DHT22;10530;49.968;19.844;2023-05-10T14:28:22;22.20;6.80
20740;DHT22;10530;49.968;19.844;2023-05-10T14:33:26;22.80;6.90
20740;DHT22;10530;49.968;19.844;2023-05-10T14:38:29;22.80;7.20
20740;DHT22;10530;49.968;19.844;2023-05-10T14:43:32;22.00;8.90
20740;DHT22;10530;49.968;19.844;2023-05-10T14:48:35;22.40;6.40
20740;DHT22;10530;49.968;19.844;2023-05-10T14:53:37;22.20;6.60
20740;DHT22;10530;49.968;19.844;2023-05-10T14:58:40;21.90;6.40
20740;DHT22;10530;49.968;19.844;2023-05-10T15:03:43;22.10;7.10
20740;DHT22;10530;49.968;19.844;2023-05-10T15:08:46;21.40;6.60
20740;DHT22;10530;49.968;19.844;2023-05-10T15:13:49;22.00;8.40
20740;DHT22;10530;49.968;19.844;2023-05-10T15:18:51;21.00;6.80
20740;DHT22;10530;49.968;19.844;2023-05-10T15:23:54;21.60;6.70
20740;DHT22;10530;49.968;19.844;2023-05-10T15:28:57;21.00;9.20
20740;DHT22;10530;49.968;19.844;2023-05-10T15:34:00;21.20;7.30
20740;DHT22;10530;49.968;19.844;2023-05-10T15:39:03;20.80;7.90
20740;DHT22;10530;49.968;19.844;2023-05-10T15:44:06;20.90;7.00
20740;DHT22;10530;49.968;19.844;2023-05-10T15:49:08;21.50;9.00
20740;DHT22;10530;49.968;19.844;2023-05-10T15:54:11;21.00;6.90
20740;DHT22;10530;49.968;19.844;2023-05-10T15:59:14;20.70;7.70
20740;DHT22;10530;49.968;19.844;2023-05-10T16:04:17;20.90;9.30
20740;DHT22;10530;49.968;19.844;2023-05-10T16:09:20;20.80;8.80
20740;DHT22;10530;49.968;19.844;2023-05-10T16:14:23;20.50;8.40
20740;DHT22;10530;49.968;19.844;2023-05-10T16:19:26;20.60;9.80
20740;DHT22;10530;49.968;19.844;2023-05-10T16:24:31;20.40;9.60
20740;DHT22;10530;49.968;19.844;2023-05-10T16:29:34;19.80;9.30
20740;DHT22;10530;49.968;19.844;2023-05-10T16:34:38;19.80;9.60
20740;DHT22;10530;49.968;19.844;2023-05-10T16:39:41;19.20;11.10
20740;DHT22;10530;49.968;19.844;2023-05-10T16:44:44;18.40;11.30
20740;DHT22;10530;49.968;19.844;2023-05-10T16:49:46;18.40;11.40
20740;DHT22;10530;49.968;19.844;2023-05-10T16:54:50;18.30;12.70
20740;DHT22;10530;49.968;19.844;2023-05-10T16:59:54;18.40;13.70
20740;DHT22;10530;49.968;19.844;2023-05-10T17:04:58;18.10;12.70
20740;DHT22;10530;49.968;19.844;2023-05-10T17:10:01;18.00;13.90
20740;DHT22;10530;49.968;19.844;2023-05-10T17:15:05;17.70;14.40
20740;DHT22;10530;49.968;19.844;2023-05-10T17:20:08;17.70;13.80
20740;DHT22;10530;49.968;19.844;2023-05-10T17:25:11;17.50;14.10
20740;DHT22;10530;49.968;19.844;2023-05-10T17:30:15;17.30;14.90
20740;DHT22;10530;49.968;19.844;2023-05-10T17:35:19;17.20;15.70
20740;DHT22;10530;49.968;19.844;2023-05-10T17:40:22;17.00;16.20
20740;DHT22;10530;49.968;19.844;2023-05-10T17:45:25;16.80;16.20
20740;DHT22;10530;49.968;19.844;2023-05-10T17:50:30;16.50;17.00
20740;DHT22;10530;49.968;19.844;2023-05-10T17:55:34;16.30;17.60
20740;DHT22;10530;49.968;19.844;2023-05-10T18:00:38;16.10;18.40
20740;DHT22;10530;49.968;19.844;2023-05-10T18:05:41;15.90;19.00
20740;DHT22;10530;49.968;19.844;2023-05-10T18:10:44;15.70;19.10
20740;DHT22;10530;49.968;19.844;2023-05-10T18:15:47;15.60;19.60
20740;DHT22;10530;49.968;19.844;2023-05-10T18:20:50;15.40;21.00
20740;DHT22;10530;49.968;19.844;2023-05-10T18:25:58;15.40;20.40
20740;DHT22;10530;49.968;19.844;2023-05-10T18:31:01;15.20;20.60
20740;DHT22;10530;49.968;19.844;2023-05-10T18:36:05;15.20;20.70
20740;DHT22;10530;49.968;19.844;2023-05-10T18:41:08;15.10;21.70
20740;DHT22;10530;49.968;19.844;2023-05-10T18:46:13;15.00;22.30
20740;DHT22;10530;49.968;19.844;2023-05-10T18:51:16;14.80;22.70
20740;DHT22;10530;49.968;19.844;2023-05-10T18:56:19;14.70;22.90
20740;DHT22;10530;49.968;19.844;2023-05-10T19:01:24;14.50;23.90
20740;DHT22;10530;49.968;19.844;2023-05-10T19:06:27;14.40;24.80
20740;DHT22;10530;49.968;19.844;2023-05-10T19:11:30;14.20;24.60
20740;DHT22;10530;49.968;19.844;2023-05-10T19:16:36;14.10;24.40
20740;DHT22;10530;49.968;19.844;2023-05-10T19:21:39;14.00;26.10
20740;DHT22;10530;49.968;19.844;2023-05-10T19:26:42;13.90;25.70
20740;DHT22;10530;49.968;19.844;2023-05-10T19:31:48;13.70;27.00
20740;DHT22;10530;49.968;19.844;2023-05-10T19:36:51;13.50;27.60
20740;DHT22;10530;49.968;19.844;2023-05-10T19:41:54;13.40;28.40
20740;DHT22;10530;49.968;19.844;2023-05-10T19:46:57;13.20;29.50
20740;DHT22;10530;49.968;19.844;2023-05-10T19:52:00;13.00;29.80
20740;DHT22;10530;49.968;19.844;2023-05-10T19:57:04;12.80;30.80
20740;DHT22;10530;49.968;19.844;2023-05-10T20:02:07;12.70;32.60
20740;DHT22;10530;49.968;19.844;2023-05-10T20:07:10;12.60;33.70
20740;DHT22;10530;49.968;19.844;2023-05-10T20:12:13;12.50;34.60
20740;DHT22;10530;49.968;19.844;2023-05-10T20:17:16;12.40;34.70
20740;DHT22;10530;49.968;19.844;2023-05-10T20:22:19;12.30;36.50
20740;DHT22;10530;49.968;19.844;2023-05-10T20:27:22;12.20;36.70
20740;DHT22;10530;49.968;19.844;2023-05-10T20:32:25;12.10;37.30
20740;DHT22;10530;49.968;19.844;2023-05-10T20:37:28;12.00;38.40
20740;DHT22;10530;49.968;19.844;2023-05-10T20:42:31;11.90;38.60
20740;DHT22;10530;49.968;19.844;2023-05-10T20:47:34;11.80;39.50
20740;DHT22;10530;49.968;19.844;2023-05-10T20:52:37;11.80;39.80
20740;DHT22;10530;49.968;19.844;2023-05-10T20:57:40;11.70;40.10
20740;DHT22;10530;49.968;19.844;2023-05-10T21:02:44;11.70;41.10
20740;DHT22;10530;49.968;19.844;2023-05-10T21:07:47;11.50;42.30
20740;DHT22;10530;49.968;19.844;2023-05-10T21:12:51;11.30;48.50
20740;DHT22;10530;49.968;19.844;2023-05-10T21:17:53;10.90;67.00
20740;DHT22;10530;49.968;19.844;2023-05-10T21:22:57;10.60;84.00
20740;DHT22;10530;49.968;19.844;2023-05-10T21:28:00;10.70;71.30
20740;DHT22;10530;49.968;19.844;2023-05-10T21:33:02;10.60;78.90
20740;DHT22;10530;49.968;19.844;2023-05-10T21:38:05;10.40;85.20
20740;DHT22;10530;49.968;19.844;2023-05-10T21:43:08;10.10;94.70
20740;DHT22;10530;49.968;19.844;2023-05-10T21:48:12;9.50;99.90
20740;DHT22;10530;49.968;19.844;2023-05-10T21:53:15;9.30;99.90
20740;DHT22;10530;49.968;19.844;2023-05-10T21:58:18;9.00;99.90
20740;DHT22;10530;49.968;19.844;2023-05-10T22:03:21;8.80;99.90
20740;DHT22;10530;49.968;19.844;2023-05-10T22:08:24;8.70;99.90
20740;DHT22;10530;49.968;19.844;2023-05-10T22:13:27;8.50;99.90
20740;DHT22;10530;49.968;19.844;2023-05-10T22:18:30;8.30;99.90
20740;DHT22;10530;49.968;19.844;2023-05-10T22:23:33;8.20;99.90
20740;DHT22;10530;49.968;19.844;2023-05-10T22:28:36;7.90;99.90
20740;DHT22;10530;49.968;19.844;2023-05-10T22:33:39;7.90;99.90
20740;DHT22;10530;49.968;19.844;2023-05-10T22:38:41;7.90;99.90
20740;DHT22;10530;49.968;19.844;2023-05-10T22:43:44;8.20;99.90
20740;DHT22;10530;49.968;19.844;2023-05-10T22:48:47;8.20;99.90
20740;DHT22;10530;49.968;19.844;2023-05-10T22:53:50;8.30;99.90
20740;DHT22;10530;49.968;19.844;2023-05-10T22:58:53;8.30;99.90
20740;DHT22;10530;49.968;19.844;2023-05-10T23:03:56;8.20;99.90
20740;DHT22;10530;49.968;19.844;2023-05-10T23:08:59;7.90;99.90
20740;DHT22;10530;49.968;19.844;2023-05-10T23:14:02;7.50;99.90
20740;DHT22;10530;49.968;19.844;2023-05-10T23:19:05;7.50;99.90
20740;DHT22;10530;49.968;19.844;2023-05-10T23:24:08;7.10;99.90
20740;DHT22;10530;49.968;19.844;2023-05-10T23:29:11;6.80;99.90
20740;DHT22;10530;49.968;19.844;2023-05-10T23:34:14;6.90;99.90
20740;DHT22;10530;49.968;19.844;2023-05-10T23:39:16;6.60;99.90
20740;DHT22;10530;49.968;19.844;2023-05-10T23:44:20;6.50;99.90
20740;DHT22;10530;49.968;19.844;2023-05-10T23:49:22;6.50;99.90
20740;DHT22;10530;49.968;19.844;2023-05-10T23:54:26;6.20;99.90
20740;DHT22;10530;49.968;19.844;2023-05-10T23:59:29;6.20;99.90
